Time;durP1;ratioP1;P1;durP2;ratioP2;P2;SDS_P1;SDS_P2;PMS_P1;PMS_P2;Temp;Humidity;BMP_temperature;BMP_pressure;BME280_temperature;BME280_humidity;BME280_pressure;Samples;Min_cycle;Max_cycle;Signal;HPM_P1;HPM_P2
2022/01/24 00:01:04;;;;;;;;;;;;;;;6.16;30.82;100713.41;4499635;31;35292;-81
2022/01/24 00:03:32;;;;;;;;;;;;;;;6.06;30.67;100712.00;4499889;31;34299;-83
2022/01/24 00:05:59;;;;;;;;;;;;;;;6.05;30.90;100712.81;4501156;31;34181;-84
2022/01/24 00:08:28;;;;;;;;;;;;;;;5.44;32.07;100706.75;4499317;31;34082;-83
2022/01/24 00:11:02;;;;;;;;;;;;;;;5.60;31.96;100711.97;4497984;31;34205;-84
2022/01/24 00:27:08;;;;;;;;;;;;;;;5.66;31.52;100742.31;4499431;31;33378;-83
2022/01/24 00:29:36;;;;;;;;;;;;;;;5.54;31.84;100739.94;4512215;31;32983;-83
2022/01/24 00:32:03;;;;;;;;;;;;;;;5.48;31.83;100739.56;4514687;31;34483;-84
2022/01/24 00:34:31;;;;;;;;;;;;;;;5.42;31.98;100744.34;4511207;31;34046;-83
2022/01/24 00:36:58;;;;;;;;;;;;;;;5.26;32.21;100747.69;4498959;31;34014;-82
2022/01/24 00:39:25;;;;;;;;;;;;;;;5.48;32.07;100740.44;4499234;31;33999;-82
2022/01/24 00:47:19;;;;;;;;;;;;;;;4.94;32.85;100753.50;4511493;31;34043;-84
2022/01/24 00:55:00;;;;;;;;;;;;;;;5.51;31.36;100750.03;4510012;31;33770;-82
2022/01/24 00:57:27;;;;;;;;;;;;;;;5.36;31.57;100744.88;4513544;31;33678;-83
2022/01/24 00:59:54;;;;;;;;;;;;;;;5.33;31.86;100747.25;4511751;31;34005;-83
2022/01/24 01:02:22;;;;;;;;;;;;;;;5.28;31.69;100752.13;4506977;31;34522;-82
2022/01/24 01:18:18;;;;;;;;;;;;;;;5.26;31.82;100733.16;4489076;31;34184;-84
2022/01/24 01:23:16;;;;;;;;;;;;;;;5.01;32.19;100735.06;4510434;31;35053;-83
2022/01/24 01:25:44;;;;;;;;;;;;;;;5.17;31.83;100737.75;4511606;31;35042;-85
2022/01/24 01:28:13;;;;;;;;;;;;;;;5.34;31.47;100738.75;4498535;31;34281;-84
2022/01/24 01:30:45;;;;;;;;;;;;;;;4.90;32.14;100751.53;4499065;31;34282;-84
2022/01/24 01:55:36;;;;;;;;;;;;;;;4.53;32.89;100739.00;4498181;31;34008;-84
2022/01/24 01:58:04;;;;;;;;;;;;;;;4.83;32.50;100740.88;4498178;31;33618;-83
2022/01/24 02:00:32;;;;;;;;;;;;;;;4.93;32.09;100744.91;4498275;31;34282;-83
2022/01/24 02:03:00;;;;;;;;;;;;;;;4.77;32.39;100739.59;4499432;31;34345;-83
2022/01/24 02:05:28;;;;;;;;;;;;;;;4.71;32.74;100739.25;4510838;31;34270;-83
2022/01/24 02:07:55;;;;;;;;;;;;;;;4.65;32.89;100739.75;4509397;31;34261;-84
2022/01/24 02:10:23;;;;;;;;;;;;;;;4.84;32.60;100736.62;4498257;31;33329;-85
2022/01/24 02:12:52;;;;;;;;;;;;;;;4.85;32.49;100738.41;4512745;31;32691;-83
2022/01/24 02:15:36;;;;;;;;;;;;;;;4.97;32.21;100743.41;4513534;31;35844;-83
2022/01/24 02:25:53;;;;;;;;;;;;;;;4.50;32.79;100767.03;4514700;31;34857;-83
2022/01/24 02:28:22;;;;;;;;;;;;;;;4.64;32.65;100763.66;4514895;31;34825;-83
2022/01/24 02:33:36;;;;;;;;;;;;;;;4.78;32.39;100757.69;4514710;31;34238;-83
2022/01/24 02:36:03;;;;;;;;;;;;;;;4.84;32.12;100752.91;4515415;31;34378;-83
2022/01/24 02:38:57;;;;;;;;;;;;;;;4.62;32.50;100757.53;4515847;31;35260;-82
2022/01/24 02:49:34;;;;;;;;;;;;;;;4.61;32.05;100763.47;4500042;31;35026;-83
2022/01/24 02:52:06;;;;;;;;;;;;;;;4.24;32.49;100756.03;4499774;31;33368;-83
2022/01/24 02:54:34;;;;;;;;;;;;;;;4.20;32.87;100764.31;4508055;31;34231;-83
2022/01/24 02:57:02;;;;;;;;;;;;;;;4.15;32.75;100766.59;4515474;31;34135;-83
2022/01/24 02:59:29;;;;;;;;;;;;;;;4.30;32.55;100758.97;4503163;31;33873;-83
2022/01/24 03:01:56;;;;;;;;;;;;;;;4.22;32.54;100757.62;4498969;31;33481;-83
2022/01/24 03:04:24;;;;;;;;;;;;;;;3.98;32.91;100766.28;4506622;31;35149;-83
2022/01/24 03:06:51;;;;;;;;;;;;;;;3.79;33.41;100765.13;4515704;31;34394;-83
2022/01/24 03:09:21;;;;;;;;;;;;;;;4.09;33.10;100755.03;4508771;31;34050;-82
2022/01/24 03:12:08;;;;;;;;;;;;;;;4.35;32.87;100760.16;4511972;31;33310;-83
2022/01/24 03:14:36;;;;;;;;;;;;;;;4.25;33.01;100756.94;4515251;31;33917;-83
2022/01/24 03:17:04;;;;;;;;;;;;;;;4.45;32.75;100765.87;4514072;31;34455;-83
2022/01/24 03:19:32;;;;;;;;;;;;;;;4.49;32.48;100766.16;4515483;31;34216;-83
2022/01/24 03:21:59;;;;;;;;;;;;;;;4.28;32.77;100769.94;4513849;31;34142;-82
2022/01/24 03:24:27;;;;;;;;;;;;;;;4.46;32.14;100773.66;4508045;31;34042;-82
2022/01/24 03:26:54;;;;;;;;;;;;;;;4.23;32.67;100779.91;4499681;31;35094;-82
2022/01/24 03:29:21;;;;;;;;;;;;;;;4.34;32.73;100781.50;4500007;31;34988;-82
2022/01/24 03:31:48;;;;;;;;;;;;;;;4.36;32.70;100781.59;4509580;31;33787;-83
2022/01/24 03:34:16;;;;;;;;;;;;;;;4.31;32.50;100773.59;4513836;31;34296;-81
2022/01/24 03:36:43;;;;;;;;;;;;;;;4.34;32.66;100783.19;4499267;31;34412;-83
2022/01/24 03:39:10;;;;;;;;;;;;;;;4.47;32.50;100789.97;4509479;31;34214;-83
2022/01/24 03:41:39;;;;;;;;;;;;;;;4.38;32.48;100788.59;4515669;31;34197;-82
2022/01/24 03:44:08;;;;;;;;;;;;;;;4.32;32.87;100788.22;4510929;31;33778;-82
2022/01/24 03:46:48;;;;;;;;;;;;;;;4.26;32.85;100785.25;4499318;31;35243;-83
2022/01/24 03:52:01;;;;;;;;;;;;;;;4.57;32.23;100790.63;4499522;31;33041;-82
2022/01/24 03:54:28;;;;;;;;;;;;;;;4.53;32.24;100785.22;4506105;31;34685;-83
2022/01/24 03:56:56;;;;;;;;;;;;;;;4.70;31.83;100787.19;4515302;31;33846;-83
2022/01/24 03:59:23;;;;;;;;;;;;;;;4.56;32.01;100780.28;4511469;31;33631;-82
2022/01/24 04:01:50;;;;;;;;;;;;;;;4.22;32.65;100788.41;4502268;31;32963;-82
2022/01/24 04:04:18;;;;;;;;;;;;;;;4.27;32.75;100789.59;4508904;31;34329;-83
2022/01/24 04:06:48;;;;;;;;;;;;;;;4.23;32.48;100785.06;4499415;31;33906;-83
2022/01/24 04:09:15;;;;;;;;;;;;;;;4.32;32.23;100783.09;4499462;31;34902;-83
2022/01/24 04:11:44;;;;;;;;;;;;;;;4.07;32.68;100788.31;4501391;31;33260;-83
2022/01/24 04:14:27;;;;;;;;;;;;;;;4.42;32.31;100796.50;4512337;31;35071;-82
2022/01/24 04:22:48;;;;;;;;;;;;;;;4.15;33.04;100801.66;4508439;31;34314;-83
2022/01/24 04:25:17;;;;;;;;;;;;;;;3.95;32.96;100802.94;4499212;31;33379;-83
2022/01/24 04:27:44;;;;;;;;;;;;;;;4.10;32.92;100803.94;4499048;31;33022;-82
2022/01/24 04:30:11;;;;;;;;;;;;;;;4.09;32.72;100802.16;4497660;31;33866;-85
2022/01/24 04:32:38;;;;;;;;;;;;;;;3.95;33.02;100807.19;4500055;31;33297;-83
2022/01/24 04:35:06;;;;;;;;;;;;;;;4.00;32.85;100808.34;4497718;31;35109;-84
2022/01/24 04:37:33;;;;;;;;;;;;;;;3.79;33.08;100826.69;4499302;31;34370;-84
2022/01/24 04:40:00;;;;;;;;;;;;;;;3.88;33.13;100821.28;4499005;31;33981;-83
2022/01/24 04:42:39;;;;;;;;;;;;;;;3.79;33.12;100821.56;4503000;31;33361;-84
2022/01/24 04:50:57;;;;;;;;;;;;;;;3.97;32.63;100820.97;4510126;31;34804;-85
2022/01/24 04:53:54;;;;;;;;;;;;;;;3.68;33.26;100840.50;4514612;31;33079;-84
2022/01/24 04:56:15;;;;;;;;;;;;;;;3.81;32.75;100839.63;4514808;31;34206;-84
2022/01/24 04:58:42;;;;;;;;;;;;;;;3.78;32.87;100834.28;4514737;31;34257;-84
2022/01/24 05:01:10;;;;;;;;;;;;;;;3.69;32.77;100839.69;4513006;31;33876;-83
2022/01/24 05:03:38;;;;;;;;;;;;;;;4.08;32.01;100830.28;4512469;31;33412;-83
2022/01/24 05:06:05;;;;;;;;;;;;;;;3.78;32.48;100835.16;4498722;31;34316;-82
2022/01/24 05:08:32;;;;;;;;;;;;;;;3.75;32.38;100844.31;4501524;31;33473;-84
2022/01/24 05:11:06;;;;;;;;;;;;;;;3.42;32.85;100849.88;4501421;31;35095;-84
2022/01/24 05:24:31;;;;;;;;;;;;;;;3.64;32.99;100857.34;4503797;31;33170;-84
2022/01/24 05:26:59;;;;;;;;;;;;;;;3.70;33.25;100859.41;4501577;31;34969;-83
2022/01/24 05:29:26;;;;;;;;;;;;;;;3.59;33.35;100857.81;4502267;31;34334;-84
2022/01/24 05:31:53;;;;;;;;;;;;;;;3.61;33.27;100859.69;4502433;31;34854;-85
2022/01/24 05:34:21;;;;;;;;;;;;;;;3.87;32.45;100863.13;4499748;31;33015;-83
2022/01/24 05:36:48;;;;;;;;;;;;;;;3.96;32.22;100865.41;4507517;31;33666;-83
2022/01/24 05:39:16;;;;;;;;;;;;;;;3.82;32.46;100872.16;4496495;31;33885;-85
2022/01/24 05:41:43;;;;;;;;;;;;;;;3.92;32.67;100866.00;4497580;31;34290;-85
2022/01/24 05:44:10;;;;;;;;;;;;;;;3.66;33.11;100867.69;4502061;31;33226;-85
2022/01/24 05:46:38;;;;;;;;;;;;;;;3.50;33.70;100867.44;4504143;31;35050;-85
2022/01/24 05:49:05;;;;;;;;;;;;;;;3.68;33.45;100867.81;4503652;31;34148;-85
2022/01/24 05:51:32;;;;;;;;;;;;;;;3.68;33.38;100871.25;4513852;31;34136;-83
2022/01/24 05:54:00;;;;;;;;;;;;;;;3.81;33.07;100876.41;4508290;31;32982;-85
2022/01/24 05:56:27;;;;;;;;;;;;;;;3.72;33.36;100880.94;4504851;31;34783;-85
2022/01/24 05:58:54;;;;;;;;;;;;;;;3.94;33.13;100882.34;4505016;31;33871;-85
2022/01/24 06:01:21;;;;;;;;;;;;;;;3.74;33.53;100879.34;4510703;31;34367;-86
2022/01/24 06:03:49;;;;;;;;;;;;;;;3.70;33.75;100885.06;4516011;31;33627;-86
2022/01/24 06:06:16;;;;;;;;;;;;;;;3.73;33.19;100889.53;4515943;31;34055;-85
2022/01/24 06:08:44;;;;;;;;;;;;;;;3.70;32.85;100885.06;4516043;31;34978;-85
2022/01/24 06:11:11;;;;;;;;;;;;;;;3.77;32.47;100891.50;4506158;31;35176;-85
2022/01/24 06:13:39;;;;;;;;;;;;;;;3.78;32.44;100890.72;4500177;31;33609;-85
2022/01/24 06:16:06;;;;;;;;;;;;;;;3.81;32.54;100896.06;4500016;31;33858;-85
2022/01/24 06:18:33;;;;;;;;;;;;;;;3.80;32.58;100895.16;4499910;31;34489;-85
2022/01/24 06:21:01;;;;;;;;;;;;;;;3.74;32.83;100887.06;4507398;31;34373;-87
2022/01/24 06:23:28;;;;;;;;;;;;;;;3.79;32.73;100898.53;4509961;31;33598;-85
2022/01/24 06:25:55;;;;;;;;;;;;;;;4.02;31.80;100899.19;4499628;31;34959;-85
2022/01/24 06:28:22;;;;;;;;;;;;;;;3.65;32.39;100904.41;4498696;31;35194;-85
2022/01/24 06:30:50;;;;;;;;;;;;;;;4.15;31.91;100909.47;4499819;31;34083;-85
2022/01/24 06:33:17;;;;;;;;;;;;;;;3.89;32.21;100905.16;4500006;31;34004;-85
2022/01/24 06:35:44;;;;;;;;;;;;;;;3.74;32.25;100920.41;4500010;31;33941;-85
2022/01/24 06:38:11;;;;;;;;;;;;;;;3.78;32.35;100919.81;4499792;31;34026;-85
2022/01/24 06:40:39;;;;;;;;;;;;;;;3.86;32.30;100920.34;4499835;31;34298;-85
2022/01/24 06:43:06;;;;;;;;;;;;;;;3.52;32.58;100927.41;4499951;31;33403;-85
2022/01/24 06:45:33;;;;;;;;;;;;;;;3.57;32.83;100918.37;4499761;31;34156;-85
2022/01/24 06:48:01;;;;;;;;;;;;;;;3.44;32.84;100926.00;4498759;31;35203;-85
2022/01/24 06:50:28;;;;;;;;;;;;;;;3.52;32.85;100933.41;4498550;31;35259;-85
2022/01/24 06:52:55;;;;;;;;;;;;;;;3.67;32.81;100938.72;4500213;31;33631;-85
2022/01/24 06:55:23;;;;;;;;;;;;;;;3.74;32.40;100938.34;4499546;31;34256;-85
2022/01/24 06:57:50;;;;;;;;;;;;;;;3.58;32.45;100945.78;4499809;31;34781;-85
2022/01/24 07:00:17;;;;;;;;;;;;;;;3.63;32.66;100952.13;4498375;31;34096;-85
2022/01/24 07:02:44;;;;;;;;;;;;;;;3.86;31.97;100946.91;4499669;31;34237;-85
2022/01/24 07:05:12;;;;;;;;;;;;;;;3.75;32.19;100957.19;4498927;31;35010;-85
2022/01/24 07:07:39;;;;;;;;;;;;;;;3.65;32.73;100953.13;4499587;31;34063;-85
2022/01/24 07:10:06;;;;;;;;;;;;;;;3.85;32.62;100959.63;4499716;31;34312;-85
2022/01/24 07:12:54;;;;;;;;;;;;;;;3.86;32.45;100957.16;4499615;31;33069;-85
2022/01/24 07:15:29;;;;;;;;;;;;;;;3.89;32.65;100962.47;4498429;31;34156;-85
2022/01/24 07:20:35;;;;;;;;;;;;;;;3.94;32.81;100962.81;4499794;31;33744;-85
2022/01/24 07:23:02;;;;;;;;;;;;;;;3.80;33.41;100961.88;4499554;31;33529;-85
2022/01/24 07:25:30;;;;;;;;;;;;;;;3.85;33.56;100965.63;4499509;31;34335;-85
2022/01/24 07:27:57;;;;;;;;;;;;;;;3.62;34.37;100974.31;4499690;31;34548;-85
2022/01/24 07:30:25;;;;;;;;;;;;;;;3.56;34.63;100978.12;4499640;31;34117;-85
2022/01/24 07:32:52;;;;;;;;;;;;;;;3.92;33.94;100989.16;4498327;31;32852;-85
2022/01/24 07:35:19;;;;;;;;;;;;;;;4.00;33.40;100977.72;4498349;31;34072;-85
2022/01/24 07:37:46;;;;;;;;;;;;;;;3.89;33.96;100988.12;4499418;31;35291;-85
2022/01/24 07:40:14;;;;;;;;;;;;;;;3.83;34.37;100997.13;4499169;31;34169;-85
2022/01/24 07:43:08;;;;;;;;;;;;;;;3.94;34.00;101003.88;4499474;31;33672;-85
2022/01/24 07:45:36;;;;;;;;;;;;;;;4.09;33.69;100998.88;4498165;31;34289;-87
2022/01/24 07:48:04;;;;;;;;;;;;;;;4.07;33.66;100997.91;4499736;31;35318;-85
2022/01/24 07:50:32;;;;;;;;;;;;;;;4.12;33.80;101004.22;4499457;31;34880;-86
2022/01/24 07:53:05;;;;;;;;;;;;;;;3.24;35.22;101006.63;4498083;31;33310;-90
2022/01/24 07:55:33;;;;;;;;;;;;;;;3.55;35.16;101017.38;4499419;31;35042;-91
2022/01/24 07:58:00;;;;;;;;;;;;;;;3.78;34.89;101013.84;4499210;31;34435;-85
2022/01/24 08:00:28;;;;;;;;;;;;;;;3.85;34.64;101014.38;4499271;31;34289;-85
2022/01/24 08:02:57;;;;;;;;;;;;;;;4.18;34.11;101009.78;4499447;31;34045;-85
2022/01/24 08:05:26;;;;;;;;;;;;;;;4.42;33.79;101019.91;4499079;31;34581;-85
2022/01/24 08:07:53;;;;;;;;;;;;;;;4.47;33.69;101021.09;4499234;31;34258;-85
2022/01/24 08:10:20;;;;;;;;;;;;;;;4.37;33.90;101024.75;4498142;31;33726;-88
2022/01/24 08:12:48;;;;;;;;;;;;;;;3.85;34.88;101016.06;4497972;31;33982;-88
2022/01/24 08:15:15;;;;;;;;;;;;;;;4.16;34.45;101024.16;4499390;31;33858;-86
2022/01/24 08:17:43;;;;;;;;;;;;;;;4.48;34.02;101031.50;4498875;31;35129;-85
2022/01/24 08:20:11;;;;;;;;;;;;;;;4.59;33.78;101027.97;4497793;31;34037;-86
2022/01/24 08:22:58;;;;;;;;;;;;;;;4.71;33.32;101030.44;4498141;31;32884;-85
2022/01/24 08:25:26;;;;;;;;;;;;;;;4.79;33.19;101024.13;4499027;31;33778;-85
2022/01/24 08:27:53;;;;;;;;;;;;;;;3.06;36.33;101047.19;4499161;31;34546;-90
2022/01/24 08:30:28;;;;;;;;;;;;;;;3.80;35.59;101040.50;4499076;31;34388;-85
2022/01/24 08:32:55;;;;;;;;;;;;;;;4.17;35.12;101037.91;4497687;31;33902;-90
2022/01/24 08:35:23;;;;;;;;;;;;;;;4.35;34.67;101044.28;4497756;31;34120;-86
2022/01/24 08:37:51;;;;;;;;;;;;;;;4.34;34.80;101045.97;4497877;31;34403;-89
2022/01/24 08:40:25;;;;;;;;;;;;;;;4.37;34.84;101051.31;4498783;31;34116;-85
2022/01/24 08:42:58;;;;;;;;;;;;;;;4.72;33.87;101045.06;4497879;31;33779;-86
2022/01/24 08:45:45;;;;;;;;;;;;;;;4.52;34.50;101045.44;4498765;31;34846;-85
2022/01/24 08:48:14;;;;;;;;;;;;;;;4.99;33.63;101045.09;4498931;31;34299;-85
2022/01/24 08:50:41;;;;;;;;;;;;;;;5.03;33.47;101052.22;4498743;31;33830;-86
2022/01/24 08:53:09;;;;;;;;;;;;;;;4.93;33.49;101055.00;4497835;31;34228;-83
2022/01/24 08:55:37;;;;;;;;;;;;;;;5.41;32.90;101044.38;4499300;31;34325;-84
2022/01/24 08:58:05;;;;;;;;;;;;;;;5.39;32.50;101045.97;4499333;31;35248;-84
2022/01/24 09:00:32;;;;;;;;;;;;;;;5.24;32.46;101052.72;4499083;31;35122;-83
2022/01/24 09:03:00;;;;;;;;;;;;;;;5.28;32.30;101044.41;4497804;31;32954;-84
2022/01/24 09:05:34;;;;;;;;;;;;;;;5.18;32.27;101055.78;4498658;31;34250;-85
2022/01/24 09:08:05;;;;;;;;;;;;;;;4.65;33.29;101050.59;4498846;31;34232;-83
2022/01/24 09:10:33;;;;;;;;;;;;;;;4.59;33.00;101055.34;4498778;31;34174;-87
2022/01/24 09:13:00;;;;;;;;;;;;;;;5.09;31.82;101050.06;4498687;31;33519;-84
2022/01/24 09:15:27;;;;;;;;;;;;;;;3.93;32.86;101048.25;4498977;31;33653;-83
2022/01/24 09:17:55;;;;;;;;;;;;;;;4.38;31.81;101052.19;4498718;31;34523;-84
2022/01/24 09:20:22;;;;;;;;;;;;;;;5.16;31.18;101052.22;4497949;31;35091;-83
2022/01/24 09:22:49;;;;;;;;;;;;;;;4.40;31.46;101055.78;4497411;31;33148;-84
2022/01/24 09:25:17;;;;;;;;;;;;;;;4.95;31.12;101064.56;4498492;31;34267;-87
2022/01/24 09:27:45;;;;;;;;;;;;;;;4.33;32.12;101058.72;4498266;31;35149;-83
2022/01/24 09:30:13;;;;;;;;;;;;;;;4.08;32.67;101062.16;4498851;31;33875;-83
2022/01/24 09:32:40;;;;;;;;;;;;;;;4.97;31.47;101059.53;4498975;31;32819;-83
2022/01/24 09:35:08;;;;;;;;;;;;;;;4.78;31.81;101063.47;4500290;31;33810;-84
2022/01/24 09:37:36;;;;;;;;;;;;;;;5.15;30.96;101063.28;4500577;31;35454;-83
2022/01/24 09:40:04;;;;;;;;;;;;;;;4.72;31.33;101065.62;4486626;31;33676;-83
2022/01/24 09:42:31;;;;;;;;;;;;;;;5.16;30.81;101065.09;4500738;31;33244;-85
2022/01/24 09:44:58;;;;;;;;;;;;;;;5.21;30.49;101052.50;4499190;31;34035;-85
2022/01/24 09:47:25;;;;;;;;;;;;;;;5.81;30.04;101050.34;4500531;31;34424;-85
2022/01/24 09:49:53;;;;;;;;;;;;;;;6.12;29.77;101049.69;4498813;31;33969;-85
2022/01/24 09:52:20;;;;;;;;;;;;;;;5.62;30.03;101050.87;4500653;31;33408;-85
2022/01/24 09:54:47;;;;;;;;;;;;;;;4.58;30.86;101049.31;4500326;31;34078;-86
2022/01/24 09:57:14;;;;;;;;;;;;;;;3.94;32.79;101044.03;4500233;31;34238;-85
2022/01/24 09:59:42;;;;;;;;;;;;;;;4.58;31.05;101043.25;4500394;31;33514;-86
2022/01/24 10:02:09;;;;;;;;;;;;;;;5.44;30.61;101048.84;4500039;31;33864;-87
2022/01/24 10:04:37;;;;;;;;;;;;;;;5.81;30.00;101037.47;4500214;31;35037;-90
2022/01/24 10:07:15;;;;;;;;;;;;;;;6.20;28.78;101042.41;4500165;31;34190;-85
2022/01/24 10:09:44;;;;;;;;;;;;;;;5.67;29.52;101040.00;4499878;31;34237;-86
2022/01/24 10:17:39;;;;;;;;;;;;;;;5.67;29.29;101030.56;4482934;31;34528;-86
2022/01/24 10:20:26;;;;;;;;;;;;;;;5.32;29.35;101036.97;4499855;31;34320;-86
2022/01/24 10:23:12;;;;;;;;;;;;;;;4.50;30.42;101036.72;4499975;31;33820;-90
2022/01/24 10:25:49;;;;;;;;;;;;;;;5.15;29.63;101032.44;4500012;31;34439;-87
2022/01/24 10:28:24;;;;;;;;;;;;;;;5.36;30.44;101036.38;4500064;31;34357;-86
2022/01/24 10:31:01;;;;;;;;;;;;;;;6.03;29.21;101028.53;4500010;31;34047;-86
2022/01/24 10:33:29;;;;;;;;;;;;;;;6.12;28.76;101031.66;4498898;31;33708;-86
2022/01/24 10:36:26;;;;;;;;;;;;;;;5.80;28.47;101020.25;4499948;31;33685;-88
2022/01/24 10:39:10;;;;;;;;;;;;;;;5.83;29.18;101033.31;4498778;31;34582;-86
2022/01/24 10:41:51;;;;;;;;;;;;;;;6.37;28.13;101034.03;4499810;31;34732;-87
2022/01/24 10:44:32;;;;;;;;;;;;;;;6.98;28.08;101027.25;4498759;31;34231;-86
2022/01/24 10:47:12;;;;;;;;;;;;;;;6.73;27.88;101024.97;4498558;31;33871;-86
2022/01/24 10:49:40;;;;;;;;;;;;;;;6.79;26.52;101022.75;4498420;31;33982;-85
2022/01/24 10:52:09;;;;;;;;;;;;;;;6.17;28.30;101025.06;4498824;31;35063;-90
2022/01/24 10:54:36;;;;;;;;;;;;;;;6.77;28.23;101018.28;4498797;31;32867;-87
2022/01/24 10:57:04;;;;;;;;;;;;;;;7.49;27.72;101006.84;4499847;31;33872;-86
2022/01/24 10:59:33;;;;;;;;;;;;;;;6.61;28.06;101013.06;4499911;31;34484;-87
2022/01/24 11:02:02;;;;;;;;;;;;;;;6.94;27.91;101004.69;4498215;31;34081;-85
2022/01/24 11:04:30;;;;;;;;;;;;;;;7.03;27.95;101004.31;4499583;31;33530;-85
2022/01/24 11:06:59;;;;;;;;;;;;;;;6.98;28.31;101021.22;4498642;31;34996;-86
2022/01/24 11:09:30;;;;;;;;;;;;;;;6.90;27.95;101014.75;4498552;31;34575;-85
2022/01/24 11:11:59;;;;;;;;;;;;;;;7.37;26.30;101001.03;4499763;31;33941;-85
2022/01/24 11:14:27;;;;;;;;;;;;;;;7.36;26.99;100994.09;4499802;31;33435;-89
2022/01/24 11:16:56;;;;;;;;;;;;;;;6.43;27.59;101012.87;4498071;31;33996;-86
2022/01/24 11:21:53;;;;;;;;;;;;;;;5.33;27.88;101013.03;4498405;31;33619;-86
2022/01/24 11:24:27;;;;;;;;;;;;;;;6.28;28.15;101018.88;4498534;31;33513;-88
2022/01/24 11:26:54;;;;;;;;;;;;;;;5.84;28.12;101016.19;4498419;31;34933;-85
2022/01/24 11:29:22;;;;;;;;;;;;;;;5.42;28.84;101017.88;4499477;31;34169;-85
2022/01/24 11:31:58;;;;;;;;;;;;;;;6.02;28.35;101012.19;4498234;31;34377;-89
2022/01/24 11:34:30;;;;;;;;;;;;;;;7.43;26.46;101002.25;4498362;31;33208;-89
2022/01/24 11:36:58;;;;;;;;;;;;;;;5.32;28.90;101011.25;4498102;31;33839;-88
2022/01/24 11:39:26;;;;;;;;;;;;;;;5.40;28.70;101005.72;4499636;31;34568;-86
2022/01/24 11:41:53;;;;;;;;;;;;;;;5.06;29.15;101006.13;4499256;31;34287;-84
2022/01/24 11:44:22;;;;;;;;;;;;;;;6.10;28.19;100997.22;4499290;31;33304;-83
2022/01/24 11:46:55;;;;;;;;;;;;;;;4.54;30.29;100998.50;4499625;31;34202;-86
2022/01/24 11:49:27;;;;;;;;;;;;;;;5.30;29.60;100992.28;4499328;31;34500;-87
2022/01/24 11:52:05;;;;;;;;;;;;;;;5.67;28.50;100999.69;4498812;31;34118;-87
2022/01/24 11:57:16;;;;;;;;;;;;;;;5.54;28.28;100986.88;4499834;31;34129;-84
2022/01/24 11:59:44;;;;;;;;;;;;;;;5.33;29.39;100987.31;4499413;31;33765;-84
2022/01/24 12:02:12;;;;;;;;;;;;;;;5.79;28.61;100990.16;4499356;31;34159;-84
2022/01/24 12:04:59;;;;;;;;;;;;;;;5.48;29.37;100978.78;4499436;31;34203;-83
2022/01/24 12:07:29;;;;;;;;;;;;;;;5.73;28.47;100983.75;4499668;31;35085;-83
2022/01/24 12:10:16;;;;;;;;;;;;;;;6.11;28.71;100974.91;4498125;31;35196;-83
2022/01/24 12:12:48;;;;;;;;;;;;;;;4.91;29.37;100977.78;4499089;31;33806;-83
2022/01/24 12:15:39;;;;;;;;;;;;;;;4.90;32.34;100977.69;4498154;31;33325;-84
2022/01/24 12:18:06;;;;;;;;;;;;;;;5.74;30.64;100970.97;4499061;31;34201;-88
2022/01/24 12:20:36;;;;;;;;;;;;;;;5.65;31.09;100974.69;4499610;31;35170;-84
2022/01/24 12:23:19;;;;;;;;;;;;;;;4.72;32.22;100977.38;4499223;31;34364;-83
2022/01/24 12:26:05;;;;;;;;;;;;;;;5.79;31.59;100973.81;4499329;31;33410;-83
2022/01/24 12:28:34;;;;;;;;;;;;;;;6.26;30.46;100984.44;4498945;31;34240;-83
2022/01/24 12:31:15;;;;;;;;;;;;;;;4.52;33.85;100979.53;4499184;31;34535;-84
2022/01/24 12:34:04;;;;;;;;;;;;;;;5.96;30.56;100980.03;4497896;31;34276;-83
2022/01/24 12:36:38;;;;;;;;;;;;;;;6.03;30.65;100980.50;4499143;31;33406;-85
2022/01/24 12:39:36;;;;;;;;;;;;;;;5.36;30.55;100972.06;4498957;31;34177;-86
2022/01/24 12:42:10;;;;;;;;;;;;;;;5.78;29.89;100975.50;4492171;31;35231;-86
2022/01/24 12:47:06;;;;;;;;;;;;;;;5.66;30.73;100974.78;4497732;31;33186;-84
2022/01/24 12:49:34;;;;;;;;;;;;;;;6.12;29.86;100975.00;4497504;31;34015;-84
2022/01/24 12:52:02;;;;;;;;;;;;;;;7.04;28.94;100965.69;4499143;31;35284;-86
2022/01/24 12:54:31;;;;;;;;;;;;;;;6.13;31.03;100970.72;4499079;31;34359;-83
2022/01/24 12:57:01;;;;;;;;;;;;;;;4.25;32.56;100968.34;4498852;31;34290;-83
2022/01/24 12:59:28;;;;;;;;;;;;;;;4.73;31.45;100974.91;4499003;31;34336;-87
2022/01/24 13:01:58;;;;;;;;;;;;;;;5.40;30.58;100956.84;4498816;31;34468;-83
2022/01/24 13:04:37;;;;;;;;;;;;;;;4.79;31.37;100965.03;4497623;31;35050;-86
2022/01/24 13:07:08;;;;;;;;;;;;;;;4.62;32.09;100973.31;4498874;31;33804;-83
2022/01/24 13:09:36;;;;;;;;;;;;;;;5.32;30.49;100962.41;4497345;31;33825;-84
2022/01/24 13:12:07;;;;;;;;;;;;;;;6.24;29.53;100964.53;4497696;31;34030;-87
2022/01/24 13:14:45;;;;;;;;;;;;;;;6.83;28.58;100960.25;4498723;31;35055;-83
2022/01/24 13:25:15;;;;;;;;;;;;;;;6.18;29.54;100953.88;4497095;31;33764;-83
2022/01/24 13:27:48;;;;;;;;;;;;;;;6.21;29.61;100957.53;4498326;31;33490;-84
2022/01/24 13:30:19;;;;;;;;;;;;;;;5.15;30.65;100951.84;4498497;31;34259;-86
2022/01/24 13:32:47;;;;;;;;;;;;;;;5.37;30.07;100963.56;4497020;31;34560;-85
2022/01/24 13:35:19;;;;;;;;;;;;;;;5.92;29.66;100962.59;4497288;31;34658;-83
2022/01/24 13:37:46;;;;;;;;;;;;;;;6.28;30.25;100963.91;4498388;31;33763;-84
2022/01/24 13:40:14;;;;;;;;;;;;;;;5.91;29.83;100971.09;4496772;31;34709;-86
2022/01/24 13:42:42;;;;;;;;;;;;;;;4.31;32.74;100972.97;4498411;31;34306;-83
2022/01/24 13:45:09;;;;;;;;;;;;;;;5.46;30.31;100962.37;4498398;31;34766;-84
2022/01/24 13:47:37;;;;;;;;;;;;;;;6.01;30.29;100978.63;4498244;31;33359;-87
2022/01/24 13:50:04;;;;;;;;;;;;;;;6.37;29.42;100967.03;4498457;31;34954;-83
2022/01/24 13:52:31;;;;;;;;;;;;;;;6.27;29.43;100960.44;4497195;31;35131;-84
2022/01/24 13:55:18;;;;;;;;;;;;;;;5.98;30.43;100960.41;4496632;31;33765;-85
2022/01/24 13:57:46;;;;;;;;;;;;;;;6.15;29.91;100959.75;4498195;31;34087;-83
2022/01/24 14:00:16;;;;;;;;;;;;;;;6.77;29.37;100957.31;4497841;31;34232;-83
2022/01/24 14:02:43;;;;;;;;;;;;;;;6.23;29.82;100961.06;4497924;31;35339;-85
2022/01/24 14:05:10;;;;;;;;;;;;;;;6.60;29.80;100960.62;4498058;31;34238;-87
2022/01/24 14:07:41;;;;;;;;;;;;;;;6.95;29.35;100959.16;4497875;31;33150;-84
2022/01/24 14:10:10;;;;;;;;;;;;;;;6.81;29.32;100955.78;4496695;31;32969;-84
2022/01/24 14:12:50;;;;;;;;;;;;;;;7.19;29.37;100955.34;4496818;31;33876;-84
2022/01/24 14:20:52;;;;;;;;;;;;;;;7.60;28.41;100955.81;4500451;31;34465;-83
2022/01/24 14:23:29;;;;;;;;;;;;;;;7.80;28.51;100956.06;4498517;31;34495;-83
2022/01/24 14:25:56;;;;;;;;;;;;;;;8.05;28.75;100954.75;4500033;31;34349;-83
2022/01/24 14:28:23;;;;;;;;;;;;;;;7.95;28.87;100957.66;4500143;31;33691;-84
2022/01/24 14:30:51;;;;;;;;;;;;;;;7.69;28.81;100946.88;4500210;31;35033;-83
2022/01/24 14:33:20;;;;;;;;;;;;;;;7.52;29.25;100952.81;4498802;31;34173;-84
2022/01/24 14:35:49;;;;;;;;;;;;;;;7.78;28.63;100944.75;4500360;31;34548;-85
2022/01/24 14:38:29;;;;;;;;;;;;;;;7.51;29.26;100951.06;4498575;31;33364;-84
2022/01/24 14:41:01;;;;;;;;;;;;;;;7.54;29.29;100943.50;4500124;31;33870;-84
2022/01/24 14:46:16;;;;;;;;;;;;;;;7.66;28.97;100946.72;4499854;31;34186;-84
2022/01/24 14:48:53;;;;;;;;;;;;;;;7.94;28.78;100942.97;4499688;31;33415;-83
2022/01/24 14:51:26;;;;;;;;;;;;;;;7.80;28.83;100942.25;4499918;31;33868;-83
2022/01/24 14:53:54;;;;;;;;;;;;;;;7.92;28.91;100939.44;4498548;31;35237;-83
2022/01/24 14:56:22;;;;;;;;;;;;;;;7.85;28.99;100942.50;4499930;31;35607;-83
2022/01/24 14:58:49;;;;;;;;;;;;;;;7.53;29.66;100934.81;4500176;31;33963;-83
2022/01/24 15:01:16;;;;;;;;;;;;;;;7.85;28.98;100937.34;4499606;31;33846;-84
2022/01/24 15:03:44;;;;;;;;;;;;;;;8.06;28.69;100938.44;4499708;31;34618;-83
2022/01/24 15:06:12;;;;;;;;;;;;;;;7.69;29.05;100935.63;4499603;31;34138;-87
2022/01/24 15:08:40;;;;;;;;;;;;;;;7.79;29.14;100940.47;4499479;31;33441;-83
2022/01/24 15:11:08;;;;;;;;;;;;;;;7.92;29.04;100939.44;4498747;31;34591;-83
2022/01/24 15:13:42;;;;;;;;;;;;;;;7.81;28.79;100949.22;4500104;31;34816;-84
2022/01/24 15:16:18;;;;;;;;;;;;;;;7.95;28.50;100942.16;4499635;31;35156;-88
2022/01/24 15:26:57;;;;;;;;;;;;;;;7.75;29.09;100957.50;4497769;31;34927;-83
2022/01/24 15:29:25;;;;;;;;;;;;;;;7.38;29.51;100957.22;4499650;31;34220;-83